Weather at Aviosuperficie AVRO

Public forecast

Using degrees Celsius for public forecast. Weather courtesy of forecast.io.

Closest aviation weather report (METAR) to Aviosuperficie AVRO

Report is more than 6 hours old.

Closest report is Rivolto Air Base, 15.5 nm (28.7 km) S. Retrieved 2021/06/18 09:55 UTC (1 day ago):

LIPI 180955Z 20003KT 9999 FEW055 BKN065 26/16 Q1018 RMK OVC VIS MIN 9999 WIND THR06 25003KT WIND THR24 18003KT BLU

Closest aviation forecast (TAF) to Aviosuperficie AVRO

Forecast is more than 12 hours old.

Closest forecast is Rivolto Air Base, 15.5 nm (28.7 km) S. Retrieved 2020/01/23 12:24 UTC (1 year ago):

TAF TAF LIPI 231100Z 2312/2324 06010KT CAVOK